Time;durP1;ratioP1;P1;durP2;ratioP2;P2;SDS_P1;SDS_P2;PMS_P1;PMS_P2;Temp;Humidity;BMP_temperature;BMP_pressure;BME280_temperature;BME280_humidity;BME280_pressure;Samples;Min_cycle;Max_cycle;Signal;HPM_P1;HPM_P2
2023/11/30 00:01:58;;;;;;;3.42;1.65;;;;;;;-4.84;57.06;100278.84;5029215;28;20029;-68
2023/11/30 00:04:23;;;;;;;7.68;1.85;;;;;;;-4.81;57.06;100286.56;5012085;28;20174;-68
2023/11/30 00:06:49;;;;;;;6.30;2.78;;;;;;;-4.77;56.95;100277.25;5031478;28;20116;-69
2023/11/30 00:09:15;;;;;;;6.43;2.42;;;;;;;-4.81;56.70;100285.69;5027821;28;20095;-69
2023/11/30 00:11:40;;;;;;;5.40;2.38;;;;;;;-4.91;56.71;100284.72;5031320;28;20043;-69
2023/11/30 00:14:05;;;;;;;5.10;2.55;;;;;;;-5.04;56.96;100282.81;5026963;28;20041;-68
2023/11/30 00:16:31;;;;;;;3.53;2.15;;;;;;;-5.06;56.94;100285.34;5032451;28;20056;-69
2023/11/30 00:18:56;;;;;;;5.82;1.88;;;;;;;-5.05;56.63;100281.97;5028108;28;20040;-69
2023/11/30 00:21:22;;;;;;;4.78;1.92;;;;;;;-5.11;56.91;100286.97;5032577;28;20041;-70
2023/11/30 00:23:48;;;;;;;5.43;2.40;;;;;;;-5.24;57.14;100285.91;5032549;28;20083;-69
2023/11/30 00:26:15;;;;;;;5.38;1.75;;;;;;;-5.30;57.58;100279.88;5029283;28;20037;-67
2023/11/30 00:28:48;;;;;;;6.43;2.28;;;;;;;-5.30;57.44;100282.41;5032696;28;20503;-68
2023/11/30 00:31:13;;;;;;;4.43;2.20;;;;;;;-5.31;57.31;100284.09;5029522;28;20044;-75
2023/11/30 00:33:39;;;;;;;4.63;2.28;;;;;;;-5.37;57.46;100278.91;5031858;28;20043;-73
2023/11/30 00:36:07;;;;;;;4.45;1.80;;;;;;;-5.37;57.15;100274.69;5028071;28;20128;-74
2023/11/30 00:38:32;;;;;;;5.53;2.25;;;;;;;-5.49;56.77;100288.91;5031839;28;20098;-73
2023/11/30 00:40:58;;;;;;;6.07;3.33;;;;;;;-5.68;57.73;100282.63;5030155;28;20197;-75
2023/11/30 00:43:23;;;;;;;8.43;3.90;;;;;;;-5.64;57.97;100295.47;5029135;28;20055;-74
2023/11/30 00:45:50;;;;;;;7.22;3.05;;;;;;;-5.60;57.45;100292.13;5032996;28;20124;-74
2023/11/30 00:48:15;;;;;;;6.93;3.03;;;;;;;-5.62;57.33;100283.59;5027056;28;20139;-74
2023/11/30 00:50:41;;;;;;;7.13;2.92;;;;;;;-5.70;57.18;100280.09;5031767;28;20122;-67
2023/11/30 00:53:06;;;;;;;6.00;2.90;;;;;;;-5.77;57.24;100285.91;5023400;28;20103;-66
2023/11/30 00:55:32;;;;;;;6.55;3.25;;;;;;;-5.89;57.38;100286.53;5031117;28;20169;-66
2023/11/30 00:57:57;;;;;;;4.75;2.50;;;;;;;-5.84;57.26;100282.41;5010034;28;20041;-66
2023/11/30 01:00:23;;;;;;;4.75;2.78;;;;;;;-5.85;56.88;100282.38;5014394;28;20048;-67
2023/11/30 01:02:49;;;;;;;6.32;2.88;;;;;;;-5.88;57.21;100290.81;5030031;28;20045;-67
2023/11/30 01:05:14;;;;;;;4.35;1.98;;;;;;;-5.84;57.05;100286.59;5026681;28;20037;-67
2023/11/30 01:07:40;;;;;;;9.50;2.28;;;;;;;-5.90;56.86;100289.91;5031242;28;20029;-67
2023/11/30 01:10:06;;;;;;;5.13;2.97;;;;;;;-6.01;56.74;100289.72;5026517;28;20033;-67
2023/11/30 01:12:33;;;;;;;6.38;2.15;;;;;;;-5.87;57.12;100294.19;5030198;28;20151;-67
2023/11/30 01:15:01;;;;;;;5.03;2.53;;;;;;;-6.05;57.06;100298.13;5026766;28;20102;-67
2023/11/30 01:17:26;;;;;;;6.55;2.60;;;;;;;-6.14;57.33;100295.41;5029804;28;20072;-67
2023/11/30 01:19:52;;;;;;;7.68;2.13;;;;;;;-6.17;58.04;100296.22;5007658;28;20033;-66
2023/11/30 01:22:17;;;;;;;2.45;1.60;;;;;;;-6.14;57.67;100292.84;5026967;28;20033;-68
2023/11/30 01:24:43;;;;;;;3.58;2.47;;;;;;;-6.09;57.50;100298.88;5030328;28;20029;-70
2023/11/30 01:27:08;;;;;;;8.32;2.72;;;;;;;-6.11;57.35;100298.00;5024913;28;20053;-70
2023/11/30 01:29:36;;;;;;;5.75;2.33;;;;;;;-6.07;57.18;100294.69;5028451;28;20040;-70
2023/11/30 01:32:02;;;;;;;4.15;2.20;;;;;;;-6.00;57.14;100293.97;5023313;28;20134;-71
2023/11/30 01:34:27;;;;;;;4.50;2.35;;;;;;;-6.05;57.29;100295.56;5027398;28;20703;-70
2023/11/30 01:36:53;;;;;;;3.72;1.75;;;;;;;-6.13;57.43;100289.50;5029039;28;20699;-70
2023/11/30 01:39:18;;;;;;;5.10;1.83;;;;;;;-6.20;57.13;100295.28;5023870;28;20037;-70
2023/11/30 01:41:44;;;;;;;4.22;1.90;;;;;;;-6.28;57.57;100297.69;5013242;28;20028;-71
2023/11/30 01:44:10;;;;;;;4.53;2.40;;;;;;;-6.24;58.00;100290.94;5024770;28;20048;-70
2023/11/30 01:46:37;;;;;;;5.53;2.70;;;;;;;-6.22;57.75;100289.31;5012094;28;20048;-72
2023/11/30 01:49:05;;;;;;;5.50;1.88;;;;;;;-6.27;57.29;100296.00;5025926;28;20037;-68
2023/11/30 01:51:35;;;;;;;11.05;1.88;;;;;;;-6.14;57.95;100297.09;5031815;28;20112;-68
2023/11/30 01:54:03;;;;;;;3.83;2.30;;;;;;;-6.02;57.58;100298.19;5026199;28;20151;-68
2023/11/30 01:56:30;;;;;;;4.38;2.50;;;;;;;-6.14;57.11;100292.00;5029367;28;20499;-68
2023/11/30 01:58:56;;;;;;;5.05;2.40;;;;;;;-6.32;57.28;100282.34;5029206;28;20064;-68
2023/11/30 02:01:27;;;;;;;4.53;2.83;;;;;;;-6.43;57.39;100284.66;5024240;28;20064;-68
2023/11/30 02:03:54;;;;;;;4.63;2.58;;;;;;;-6.42;57.67;100282.16;5005219;28;20567;-68
2023/11/30 02:06:19;;;;;;;4.85;2.55;;;;;;;-6.43;57.40;100285.50;5026121;28;20029;-72
2023/11/30 02:08:45;;;;;;;5.70;2.65;;;;;;;-6.45;57.41;100284.63;5029692;28;20033;-72
2023/11/30 02:11:11;;;;;;;6.13;3.33;;;;;;;-6.46;57.84;100287.16;5025030;28;20624;-71
2023/11/30 02:13:37;;;;;;;7.53;3.40;;;;;;;-6.52;57.90;100280.25;5029565;28;20041;-72
2023/11/30 02:16:03;;;;;;;6.38;2.95;;;;;;;-6.50;57.99;100276.03;5014939;28;20044;-73
2023/11/30 02:18:29;;;;;;;7.22;3.53;;;;;;;-6.56;58.13;100282.69;5026857;28;20442;-73
2023/11/30 02:20:56;;;;;;;7.07;3.33;;;;;;;-6.59;58.38;100280.94;5027872;28;20142;-72
2023/11/30 02:23:22;;;;;;;34.42;4.40;;;;;;;-6.49;58.52;100285.38;5021566;28;20064;-71
2023/11/30 02:25:48;;;;;;;12.27;3.47;;;;;;;-6.42;58.33;100281.28;5028174;28;20033;-72
2023/11/30 02:28:18;;;;;;;8.77;2.70;;;;;;;-6.52;58.15;100275.16;5023056;28;20056;-71
2023/11/30 02:30:46;;;;;;;13.98;3.08;;;;;;;-6.56;58.33;100280.16;5028732;28;20051;-71
2023/11/30 02:33:12;;;;;;;7.03;3.10;;;;;;;-6.47;58.38;100277.78;5022161;28;20112;-72
2023/11/30 02:35:38;;;;;;;6.28;2.67;;;;;;;-6.50;58.14;100278.59;5031096;28;20045;-72
2023/11/30 02:38:03;;;;;;;6.82;3.55;;;;;;;-6.45;58.50;100276.13;5033026;28;20055;-71
2023/11/30 02:40:29;;;;;;;6.47;3.03;;;;;;;-6.38;58.67;100275.44;5027482;28;20120;-71
2023/11/30 02:42:54;;;;;;;15.23;4.35;;;;;;;-6.20;58.70;100269.84;5033091;28;20518;-71
2023/11/30 02:45:20;;;;;;;41.80;6.18;;;;;;;-6.14;58.23;100277.59;5009193;28;20041;-73
2023/11/30 02:47:45;;;;;;;7.28;3.25;;;;;;;-6.15;58.02;100272.47;5026364;28;20029;-72
2023/11/30 02:50:10;;;;;;;9.20;3.88;;;;;;;-6.14;58.53;100277.59;5011004;28;20036;-71
2023/11/30 02:52:36;;;;;;;11.90;4.95;;;;;;;-6.05;58.58;100282.84;5029014;28;20049;-72
2023/11/30 02:55:01;;;;;;;8.48;4.13;;;;;;;-6.06;58.35;100280.28;5035006;28;20067;-72
2023/11/30 02:57:27;;;;;;;9.75;3.78;;;;;;;-5.96;58.50;100274.53;5008489;28;20029;-72
2023/11/30 02:59:52;;;;;;;11.60;4.72;;;;;;;-5.99;58.27;100277.03;5014682;28;20579;-69
2023/11/30 03:02:18;;;;;;;10.95;4.13;;;;;;;-6.01;58.35;100271.06;5015762;28;20064;-69
2023/11/30 03:04:45;;;;;;;11.35;4.78;;;;;;;-6.03;58.32;100273.56;5030522;28;20860;-68
2023/11/30 03:07:10;;;;;;;18.50;3.47;;;;;;;-6.09;58.06;100270.91;5024014;28;20047;-67
2023/11/30 03:09:35;;;;;;;6.93;4.15;;;;;;;-6.01;58.58;100271.91;5031607;28;20045;-67
2023/11/30 03:12:01;;;;;;;19.35;4.25;;;;;;;-6.03;58.31;100271.00;5032282;28;20032;-68
2023/11/30 03:14:27;;;;;;;22.40;4.05;;;;;;;-6.04;57.90;100269.31;5023547;28;20049;-70
2023/11/30 03:16:52;;;;;;;8.07;3.90;;;;;;;-6.11;58.17;100261.53;5030691;28;20056;-70
2023/11/30 03:19:18;;;;;;;10.80;3.28;;;;;;;-6.16;58.35;100263.97;5025176;28;20076;-71
2023/11/30 03:21:44;;;;;;;12.90;4.38;;;;;;;-6.07;58.24;100265.84;5033471;28;20032;-71
2023/11/30 03:24:09;;;;;;;42.78;5.65;;;;;;;-6.29;58.10;100260.34;5023387;28;20940;-71
2023/11/30 03:26:36;;;;;;;14.85;4.93;;;;;;;-6.60;58.12;100258.88;5029383;28;20025;-71
2023/11/30 03:29:01;;;;;;;21.27;3.88;;;;;;;-6.31;58.26;100261.16;5021841;28;20044;-71
2023/11/30 03:31:27;;;;;;;4.65;2.78;;;;;;;-6.33;58.51;100260.25;5026203;28;21010;-72
2023/11/30 03:33:52;;;;;;;7.65;4.25;;;;;;;-6.15;58.61;100264.84;5015852;28;20037;-71
2023/11/30 03:36:18;;;;;;;6.45;2.85;;;;;;;-5.94;58.42;100249.13;5025144;28;20087;-72
2023/11/30 03:38:43;;;;;;;7.80;3.90;;;;;;;-5.86;58.45;100252.63;5031384;28;20056;-71
2023/11/30 03:41:09;;;;;;;6.45;3.30;;;;;;;-5.98;57.97;100254.13;5028338;28;20127;-72
2023/11/30 03:43:37;;;;;;;52.85;5.78;;;;;;;-6.39;58.57;100259.31;5012504;28;21140;-72
2023/11/30 03:46:02;;;;;;;23.50;4.45;;;;;;;-6.12;58.96;100255.59;5031375;28;20025;-71
2023/11/30 03:48:27;;;;;;;15.82;5.45;;;;;;;-6.28;58.71;100253.59;5017782;28;20554;-71
2023/11/30 03:50:53;;;;;;;22.92;4.05;;;;;;;-6.12;58.56;100253.03;5037014;28;20041;-70
2023/11/30 03:53:18;;;;;;;12.32;4.53;;;;;;;-6.19;58.53;100259.69;5024149;28;20029;-71
2023/11/30 03:55:44;;;;;;;9.27;3.78;;;;;;;-6.21;58.71;100261.34;5031396;28;20780;-71
2023/11/30 03:58:09;;;;;;;7.70;3.75;;;;;;;-6.27;58.20;100251.06;5027654;28;20041;-70
2023/11/30 04:00:35;;;;;;;13.77;3.88;;;;;;;-6.30;58.31;100257.78;5027632;28;20052;-70
2023/11/30 04:03:01;;;;;;;14.77;4.28;;;;;;;-6.21;58.64;100250.34;5030943;28;20033;-67
2023/11/30 04:05:26;;;;;;;7.45;4.03;;;;;;;-6.10;58.35;100243.75;5026513;28;20029;-71
2023/11/30 04:07:54;;;;;;;5.70;3.85;;;;;;;-6.06;58.31;100249.75;5025273;28;20044;-71
2023/11/30 04:10:19;;;;;;;17.08;3.47;;;;;;;-6.25;57.99;100248.56;5010646;28;20408;-71
2023/11/30 04:12:45;;;;;;;7.30;4.32;;;;;;;-6.33;58.35;100245.00;5025459;28;20041;-72
2023/11/30 04:15:10;;;;;;;10.35;4.10;;;;;;;-6.28;58.12;100243.41;5031090;28;20033;-72
2023/11/30 04:17:36;;;;;;;11.60;4.40;;;;;;;-6.36;58.22;100240.72;5027493;28;20297;-72
2023/11/30 04:20:03;;;;;;;8.85;4.15;;;;;;;-6.31;58.23;100240.81;5030319;28;20037;-72
2023/11/30 04:22:29;;;;;;;9.20;3.88;;;;;;;-6.30;58.30;100240.00;5040037;28;20045;-72
2023/11/30 04:24:54;;;;;;;9.23;3.85;;;;;;;-6.41;59.23;100233.00;5029154;28;20032;-72
2023/11/30 04:27:20;;;;;;;31.75;5.03;;;;;;;-6.79;59.69;100232.25;5006631;28;20036;-69
2023/11/30 04:29:45;;;;;;;21.58;5.50;;;;;;;-6.95;60.55;100233.59;5030491;28;20029;-67
2023/11/30 04:32:11;;;;;;;15.55;5.30;;;;;;;-6.53;59.32;100232.78;5031556;28;20116;-67
2023/11/30 04:34:37;;;;;;;23.58;4.38;;;;;;;-6.52;59.06;100229.41;5025387;28;20064;-67
2023/11/30 04:37:02;;;;;;;8.50;3.67;;;;;;;-6.45;58.74;100231.22;5030719;28;20040;-67
2023/11/30 04:39:28;;;;;;;23.90;4.32;;;;;;;-6.56;59.26;100227.63;5021794;28;20045;-67
2023/11/30 04:41:53;;;;;;;6.28;3.13;;;;;;;-6.37;58.72;100233.94;5031944;28;20029;-67
2023/11/30 04:44:20;;;;;;;9.60;3.90;;;;;;;-6.55;58.87;100224.25;5008575;28;20048;-73
2023/11/30 04:46:46;;;;;;;21.15;5.63;;;;;;;-6.75;59.59;100220.47;5029910;28;20507;-74
2023/11/30 04:49:11;;;;;;;7.03;3.53;;;;;;;-6.54;59.16;100225.09;5029995;28;20041;-74
2023/11/30 04:51:37;;;;;;;8.50;4.05;;;;;;;-6.49;58.80;100223.50;5027460;28;20082;-74
2023/11/30 04:54:05;;;;;;;5.38;3.22;;;;;;;-6.41;58.15;100216.91;5032895;28;20808;-74
2023/11/30 04:56:30;;;;;;;11.82;3.42;;;;;;;-6.41;58.07;100217.75;5041887;28;20182;-73
2023/11/30 04:58:55;;;;;;;8.77;4.28;;;;;;;-6.43;58.33;100224.47;5031632;28;20041;-73
2023/11/30 05:01:21;;;;;;;10.90;3.92;;;;;;;-6.49;58.50;100219.28;5025758;28;20196;-74
2023/11/30 05:03:46;;;;;;;9.27;3.72;;;;;;;-6.58;58.43;100219.09;5032260;28;20044;-71
2023/11/30 05:06:12;;;;;;;23.30;6.15;;;;;;;-6.71;59.36;100217.13;5031074;28;20598;-72
2023/11/30 05:08:37;;;;;;;14.32;3.78;;;;;;;-6.56;59.43;100219.97;5025792;28;20678;-71
2023/11/30 05:11:04;;;;;;;9.23;4.47;;;;;;;-6.51;59.24;100225.16;5031431;28;20215;-70
2023/11/30 05:13:29;;;;;;;13.88;4.55;;;;;;;-6.44;58.97;100216.84;5023655;28;20052;-68
2023/11/30 05:15:55;;;;;;;7.57;4.85;;;;;;;-6.26;58.89;100222.28;5031598;28;20037;-68
2023/11/30 05:18:20;;;;;;;5.45;3.15;;;;;;;-6.18;58.35;100227.47;5025327;28;20135;-68
2023/11/30 05:20:46;;;;;;;7.15;3.47;;;;;;;-6.28;58.33;100228.16;5031137;28;20403;-71
2023/11/30 05:23:11;;;;;;;6.70;3.25;;;;;;;-6.23;58.51;100231.63;5029252;28;20411;-69
2023/11/30 05:25:37;;;;;;;25.63;4.90;;;;;;;-6.30;58.49;100227.28;5027135;28;20021;-69
2023/11/30 05:28:04;;;;;;;14.00;4.15;;;;;;;-6.32;58.23;100231.47;5029456;28;20123;-71
2023/11/30 05:30:30;;;;;;;8.55;3.85;;;;;;;-6.43;58.54;100219.41;5024485;28;20165;-68
2023/11/30 05:32:55;;;;;;;20.33;4.10;;;;;;;-6.43;57.98;100232.13;5028072;28;20033;-69
2023/11/30 05:35:22;;;;;;;15.90;4.18;;;;;;;-6.42;58.39;100230.41;5024857;28;20051;-70
2023/11/30 05:37:48;;;;;;;25.17;5.22;;;;;;;-6.64;59.24;100229.16;5029133;28;20053;-70
2023/11/30 05:40:13;;;;;;;30.73;5.70;;;;;;;-6.51;59.11;100231.13;5029683;28;20033;-70
2023/11/30 05:42:40;;;;;;;7.80;3.75;;;;;;;-6.32;58.70;100227.22;5004774;28;20090;-68
2023/11/30 05:45:06;;;;;;;9.77;3.60;;;;;;;-6.34;58.69;100235.66;5030294;28;20491;-69
2023/11/30 05:47:31;;;;;;;68.05;7.63;;;;;;;-7.42;61.10;100235.94;5024851;28;20518;-71
2023/11/30 05:49:57;;;;;;;42.05;6.57;;;;;;;-6.68;60.18;100222.31;5029565;28;20040;-70
2023/11/30 05:52:22;;;;;;;24.70;5.05;;;;;;;-6.47;59.98;100237.09;5026555;28;20029;-70
2023/11/30 05:54:48;;;;;;;10.35;4.53;;;;;;;-6.34;59.91;100240.75;5030839;28;20099;-68
2023/11/30 05:57:14;;;;;;;11.95;5.68;;;;;;;-6.19;59.47;100246.97;5031922;28;20380;-67
2023/11/30 05:59:39;;;;;;;10.30;4.57;;;;;;;-6.06;59.03;100242.09;5025818;28;20037;-67
2023/11/30 06:02:05;;;;;;;8.07;3.78;;;;;;;-6.03;58.48;100252.34;5025827;28;20037;-70
2023/11/30 06:04:32;;;;;;;12.80;4.40;;;;;;;-6.48;59.35;100253.22;5024174;28;20090;-66
2023/11/30 06:06:58;;;;;;;10.90;4.47;;;;;;;-6.42;59.16;100253.31;5010322;28;21059;-69
2023/11/30 06:09:24;;;;;;;8.68;3.88;;;;;;;-6.21;59.13;100260.50;5028473;28;20045;-68
2023/11/30 06:11:52;;;;;;;6.63;3.47;;;;;;;-6.18;58.80;100258.00;5032625;28;20082;-74
2023/11/30 06:14:18;;;;;;;9.15;3.78;;;;;;;-6.11;58.39;100259.84;5030669;28;20064;-75
2023/11/30 06:16:44;;;;;;;9.40;3.92;;;;;;;-6.15;58.30;100264.84;5026880;28;20087;-74
2023/11/30 06:19:12;;;;;;;25.52;4.88;;;;;;;-6.27;58.03;100263.78;5031271;28;20041;-73
2023/11/30 06:21:38;;;;;;;8.65;4.43;;;;;;;-6.26;58.55;100259.56;5027736;28;20455;-75
2023/11/30 06:24:07;;;;;;;7.68;3.13;;;;;;;-6.20;58.19;100263.09;5014305;28;20041;-75
2023/11/30 06:26:32;;;;;;;17.92;5.05;;;;;;;-6.32;58.43;100259.44;5030369;28;20360;-77
2023/11/30 06:28:58;;;;;;;32.75;4.82;;;;;;;-6.60;59.25;100261.41;5031987;28;20043;-75
2023/11/30 06:31:23;;;;;;;14.32;3.50;;;;;;;-6.28;58.65;100264.63;5035771;28;20041;-75
2023/11/30 06:33:50;;;;;;;6.93;3.88;;;;;;;-6.18;58.51;100270.72;5033033;28;20049;-75
2023/11/30 06:36:15;;;;;;;14.90;4.65;;;;;;;-6.18;58.60;100265.63;5038736;28;20021;-75
2023/11/30 06:38:42;;;;;;;6.97;3.55;;;;;;;-6.13;58.47;100273.34;5028943;28;20052;-71
2023/11/30 06:41:13;;;;;;;9.13;3.20;;;;;;;-6.11;58.14;100271.69;5034557;28;20043;-75
2023/11/30 06:43:43;;;;;;;8.98;4.45;;;;;;;-6.18;58.09;100273.28;5028348;28;20108;-74
2023/11/30 06:46:08;;;;;;;17.70;3.80;;;;;;;-6.39;58.62;100272.03;5034818;28;20610;-74
2023/11/30 06:48:34;;;;;;;13.95;3.58;;;;;;;-6.42;58.51;100271.09;5027285;28;20070;-73
2023/11/30 06:51:00;;;;;;;14.82;4.95;;;;;;;-6.52;58.58;100277.69;5032135;28;20029;-74
2023/11/30 06:53:28;;;;;;;11.32;2.90;;;;;;;-6.40;59.09;100280.50;5028987;28;20081;-72
2023/11/30 06:55:56;;;;;;;8.82;3.67;;;;;;;-6.15;58.76;100290.28;5029811;28;20036;-74
2023/11/30 06:58:21;;;;;;;7.78;3.83;;;;;;;-6.29;58.55;100287.47;5015809;28;20073;-72
2023/11/30 07:00:48;;;;;;;7.28;2.70;;;;;;;-6.31;58.94;100286.56;5029997;28;20059;-72
2023/11/30 07:03:14;;;;;;;5.13;2.10;;;;;;;-6.38;58.97;100286.44;5033499;28;20037;-70
2023/11/30 07:05:40;;;;;;;4.90;2.90;;;;;;;-6.08;59.00;100287.03;5025815;28;20070;-70
2023/11/30 07:08:05;;;;;;;7.30;2.92;;;;;;;-5.93;58.39;100282.22;5031960;28;20053;-70
2023/11/30 07:10:32;;;;;;;6.90;3.22;;;;;;;-5.93;58.21;100282.22;5017492;28;20046;-74
2023/11/30 07:12:57;;;;;;;5.50;2.55;;;;;;;-5.83;58.38;100288.34;5034037;28;20029;-74
2023/11/30 07:15:25;;;;;;;9.07;3.25;;;;;;;-5.67;58.13;100286.91;5030526;28;20033;-75
2023/11/30 07:17:51;;;;;;;6.95;3.08;;;;;;;-5.77;58.30;100286.75;5019037;28;22191;-74
2023/11/30 07:20:17;;;;;;;7.07;2.70;;;;;;;-5.74;58.45;100292.75;5038229;28;20398;-75
2023/11/30 07:22:43;;;;;;;9.73;3.80;;;;;;;-5.82;58.48;100300.22;5032155;28;21421;-75
2023/11/30 07:25:08;;;;;;;6.60;2.50;;;;;;;-5.64;58.30;100299.69;5035237;28;20487;-75
2023/11/30 07:27:34;;;;;;;20.63;2.67;;;;;;;-5.55;57.50;100299.84;5046619;28;20052;-77
2023/11/30 07:30:00;;;;;;;6.18;2.70;;;;;;;-5.39;57.88;100300.97;5034283;28;20037;-74
2023/11/30 07:32:26;;;;;;;4.78;2.38;;;;;;;-5.19;58.48;100301.31;5028308;28;20454;-72
2023/11/30 07:34:52;;;;;;;8.05;3.80;;;;;;;-5.10;57.48;100306.53;5031291;28;20037;-72
2023/11/30 07:37:21;;;;;;;11.93;3.55;;;;;;;-5.01;57.40;100306.66;5028503;28;20041;-74
2023/11/30 07:39:47;;;;;;;6.88;3.53;;;;;;;-4.77;57.77;100303.63;5028729;28;20049;-73
2023/11/30 07:42:16;;;;;;;8.30;2.85;;;;;;;-4.63;57.14;100301.25;5032342;28;20024;-76
2023/11/30 07:44:42;;;;;;;5.22;2.53;;;;;;;-4.80;56.62;100302.72;5012929;28;20098;-73
2023/11/30 07:47:07;;;;;;;3.45;1.83;;;;;;;-4.83;56.72;100303.53;5031190;28;20820;-72
2023/11/30 07:49:33;;;;;;;6.63;3.35;;;;;;;-4.97;56.62;100292.25;5027644;28;20043;-71
2023/11/30 07:51:58;;;;;;;3.92;1.77;;;;;;;-4.90;56.84;100300.84;5028194;28;20041;-71
2023/11/30 07:54:24;;;;;;;8.60;3.10;;;;;;;-5.07;56.76;100292.97;5028040;28;20065;-70
2023/11/30 07:56:52;;;;;;;8.85;3.63;;;;;;;-5.07;56.97;100295.53;5025795;28;20033;-70
2023/11/30 07:59:17;;;;;;;7.28;3.08;;;;;;;-4.98;57.15;100293.09;5025057;28;20577;-70
2023/11/30 08:01:46;;;;;;;4.40;2.63;;;;;;;-4.95;57.04;100293.13;5026574;28;20033;-70
2023/11/30 08:04:11;;;;;;;7.45;2.92;;;;;;;-4.99;56.95;100292.25;5028752;28;20048;-70
2023/11/30 08:06:38;;;;;;;4.45;2.67;;;;;;;-5.26;57.06;100302.91;5009061;28;20411;-69
2023/11/30 08:09:04;;;;;;;8.10;4.05;;;;;;;-5.34;57.29;100289.16;5028238;28;20068;-65
2023/11/30 08:11:30;;;;;;;7.15;2.90;;;;;;;-5.23;57.42;100291.88;5027827;28;20503;-66
2023/11/30 08:13:58;;;;;;;6.55;2.55;;;;;;;-5.51;58.28;100305.84;5027389;28;20049;-66
2023/11/30 08:16:24;;;;;;;6.47;2.47;;;;;;;-5.68;58.27;100305.56;5029989;28;20170;-66
2023/11/30 08:18:50;;;;;;;12.93;2.78;;;;;;;-5.65;58.11;100314.13;5023081;28;20037;-66
2023/11/30 08:21:15;;;;;;;13.23;3.15;;;;;;;-5.74;58.59;100308.88;5029464;28;20098;-64
2023/11/30 08:23:42;;;;;;;9.27;3.90;;;;;;;-5.57;58.88;100306.63;5022520;28;20498;-65
2023/11/30 08:26:07;;;;;;;9.20;3.75;;;;;;;-5.30;58.21;100307.88;5030675;28;20032;-64
2023/11/30 08:28:33;;;;;;;11.63;3.55;;;;;;;-5.11;58.38;100309.91;5025923;28;20041;-65
2023/11/30 08:31:01;;;;;;;8.60;3.95;;;;;;;-5.07;57.97;100313.38;5028146;28;20056;-66
2023/11/30 08:33:28;;;;;;;8.20;3.10;;;;;;;-5.12;58.06;100315.84;5026800;28;20072;-64
2023/11/30 08:35:53;;;;;;;11.93;4.22;;;;;;;-4.99;58.14;100317.75;5020911;28;20429;-64
2023/11/30 08:38:19;;;;;;;6.75;3.30;;;;;;;-5.00;58.08;100322.81;5028178;28;20037;-64
2023/11/30 08:40:47;;;;;;;19.13;4.43;;;;;;;-5.04;58.13;100327.00;5022712;28;20025;-65
2023/11/30 08:43:14;;;;;;;10.05;3.78;;;;;;;-4.61;57.89;100319.09;5028280;28;20182;-66
2023/11/30 08:45:39;;;;;;;8.90;3.85;;;;;;;-4.28;56.92;100312.72;5022771;28;20522;-65
2023/11/30 08:48:05;;;;;;;10.32;3.90;;;;;;;-4.26;56.79;100316.16;5026440;28;20041;-64
2023/11/30 08:50:30;;;;;;;8.57;2.80;;;;;;;-4.28;56.40;100310.16;5011419;28;20721;-64
2023/11/30 08:52:56;;;;;;;6.55;3.63;;;;;;;-4.09;56.42;100309.56;5026200;28;20535;-64
2023/11/30 08:55:21;;;;;;;7.93;3.33;;;;;;;-4.16;56.15;100312.88;5028491;28;20040;-64
2023/11/30 08:57:47;;;;;;;7.30;3.10;;;;;;;-4.15;55.75;100317.13;5003692;28;20053;-65
2023/11/30 09:00:15;;;;;;;13.95;3.42;;;;;;;-4.18;56.09;100306.91;5029629;28;20036;-64
2023/11/30 09:02:41;;;;;;;10.00;3.10;;;;;;;-4.34;56.11;100314.38;5020986;28;20319;-65
2023/11/30 09:05:07;;;;;;;9.63;3.10;;;;;;;-4.64;56.25;100324.16;5027178;28;20051;-65
2023/11/30 09:07:36;;;;;;;14.85;3.30;;;;;;;-4.66;57.09;100316.50;5020031;28;20036;-65
2023/11/30 09:10:02;;;;;;;7.03;2.95;;;;;;;-4.58;56.68;100314.06;5024651;28;20043;-64
2023/11/30 09:12:28;;;;;;;5.63;2.78;;;;;;;-4.73;57.17;100310.44;5024362;28;20072;-65
2023/11/30 09:14:54;;;;;;;7.28;3.35;;;;;;;-4.15;57.33;100312.03;5020057;28;20031;-65
2023/11/30 09:17:19;;;;;;;7.68;3.60;;;;;;;-4.35;56.93;100322.84;5023101;28;20530;-65
2023/11/30 09:19:46;;;;;;;7.75;2.75;;;;;;;-4.38;55.74;100307.50;5022169;28;20140;-64
2023/11/30 09:22:11;;;;;;;12.32;3.30;;;;;;;-4.40;56.46;100309.19;5025970;28;20079;-64
2023/11/30 09:24:37;;;;;;;6.45;2.97;;;;;;;-4.44;56.40;100317.63;5020156;28;20111;-65
2023/11/30 09:27:03;;;;;;;7.72;3.92;;;;;;;-4.31;56.65;100323.75;5023591;28;20053;-64
2023/11/30 09:29:28;;;;;;;8.85;3.63;;;;;;;-4.18;56.43;100319.66;5022777;28;20591;-63
2023/11/30 09:31:54;;;;;;;6.22;3.00;;;;;;;-4.17;56.30;100321.38;5020455;28;20047;-65
2023/11/30 09:34:22;;;;;;;6.40;3.17;;;;;;;-4.38;56.15;100327.94;5022624;28;20062;-66
2023/11/30 09:36:47;;;;;;;4.95;2.70;;;;;;;-4.23;55.91;100318.72;5021059;28;20641;-65
2023/11/30 09:39:14;;;;;;;6.35;2.85;;;;;;;-4.38;56.19;100317.72;5023939;28;20108;-65
2023/11/30 09:41:40;;;;;;;7.43;2.88;;;;;;;-4.56;56.37;100309.84;5019898;28;20125;-64
2023/11/30 09:44:06;;;;;;;7.47;3.47;;;;;;;-4.27;56.82;100319.56;5023670;28;20049;-65
2023/11/30 09:46:32;;;;;;;4.72;2.83;;;;;;;-4.44;56.44;100320.19;5026022;28;20100;-64
2023/11/30 09:49:01;;;;;;;9.18;3.85;;;;;;;-4.20;56.44;100316.22;5024295;28;20037;-64
2023/11/30 09:51:28;;;;;;;7.70;2.55;;;;;;;-4.49;56.53;100314.19;5039740;28;20135;-64
2023/11/30 09:53:57;;;;;;;7.32;3.13;;;;;;;-4.43;56.21;100314.25;5005763;28;20037;-66
2023/11/30 09:56:27;;;;;;;6.15;2.60;;;;;;;-4.54;56.82;100311.56;5029688;28;20064;-64
2023/11/30 09:58:54;;;;;;;13.93;3.50;;;;;;;-4.68;56.55;100307.09;5024303;28;20064;-64
2023/11/30 10:01:20;;;;;;;6.18;3.33;;;;;;;-4.48;57.04;100308.22;5034606;28;20407;-65
2023/11/30 10:03:46;;;;;;;7.22;2.90;;;;;;;-4.20;56.96;100306.03;5024094;28;20041;-65
2023/11/30 10:06:12;;;;;;;14.55;3.85;;;;;;;-4.16;56.17;100303.53;5016435;28;20218;-65
2023/11/30 10:08:41;;;;;;;10.40;3.58;;;;;;;-4.21;56.78;100309.41;5023891;28;20044;-65
2023/11/30 10:11:08;;;;;;;6.03;3.40;;;;;;;-4.21;56.60;100309.41;5029943;28;20083;-65
2023/11/30 10:13:35;;;;;;;9.60;3.85;;;;;;;-4.24;56.25;100317.03;5028894;28;20060;-64
2023/11/30 10:16:01;;;;;;;4.25;2.25;;;;;;;-4.09;56.09;100304.44;5027637;28;20037;-64
2023/11/30 10:18:30;;;;;;;6.13;3.00;;;;;;;-4.17;55.90;100303.50;5027665;28;20098;-65
2023/11/30 10:20:56;;;;;;;5.47;2.78;;;;;;;-4.08;55.79;100308.69;5025093;28;21222;-64
2023/11/30 10:23:21;;;;;;;6.25;3.13;;;;;;;-4.04;55.92;100300.25;5026866;28;20110;-66
2023/11/30 10:25:51;;;;;;;6.65;3.25;;;;;;;-3.96;55.99;100293.53;5026324;28;20037;-65
2023/11/30 10:28:16;;;;;;;6.20;2.22;;;;;;;-3.76;55.65;100298.84;5010518;28;20037;-65
2023/11/30 10:30:50;;;;;;;6.75;2.58;;;;;;;-3.64;55.26;100300.66;5025074;28;20754;-65
2023/11/30 10:33:21;;;;;;;5.57;2.53;;;;;;;-3.83;54.17;100298.75;5025773;28;20519;-65
2023/11/30 10:35:55;;;;;;;4.50;2.63;;;;;;;-3.80;55.70;100288.59;5025792;28;20041;-65
2023/11/30 10:38:24;;;;;;;6.80;3.28;;;;;;;-4.13;54.80;100297.59;5028112;28;20072;-64
2023/11/30 10:41:00;;;;;;;7.60;3.65;;;;;;;-4.39;55.93;100287.97;5025567;28;20120;-65
2023/11/30 10:43:29;;;;;;;6.72;2.78;;;;;;;-4.13;55.94;100288.22;5026283;28;20187;-65
2023/11/30 10:45:58;;;;;;;7.10;3.92;;;;;;;-3.94;55.46;100284.19;5024537;28;20037;-64
2023/11/30 10:48:24;;;;;;;9.00;2.80;;;;;;;-4.03;55.33;100288.31;5029783;28;20154;-65
2023/11/30 10:50:51;;;;;;;7.35;3.80;;;;;;;-4.12;55.87;100294.19;5024871;28;20036;-64
2023/11/30 10:53:46;;;;;;;5.57;3.03;;;;;;;-4.15;55.78;100294.16;5024647;28;20090;-65
2023/11/30 10:56:13;;;;;;;6.15;3.55;;;;;;;-4.22;56.27;100287.28;5015899;28;20084;-66
2023/11/30 10:58:41;;;;;;;7.07;3.38;;;;;;;-4.16;56.42;100284.81;5007631;28;20044;-63
2023/11/30 11:01:10;;;;;;;8.50;3.47;;;;;;;-4.28;56.24;100282.09;5019293;28;20032;-64
2023/11/30 11:03:36;;;;;;;7.22;3.58;;;;;;;-4.19;56.50;100282.19;5015036;28;20075;-64
2023/11/30 11:06:03;;;;;;;7.75;3.60;;;;;;;-4.17;56.72;100275.41;5023953;28;20029;-66
2023/11/30 11:08:28;;;;;;;11.38;3.85;;;;;;;-4.17;57.28;100276.28;5019783;28;20045;-65
2023/11/30 11:11:05;;;;;;;6.95;3.95;;;;;;;-4.09;56.20;100268.72;5025484;28;20044;-65
2023/11/30 11:13:34;;;;;;;5.57;3.60;;;;;;;-4.02;56.75;100260.28;5026943;28;20033;-65
2023/11/30 11:16:02;;;;;;;6.93;3.60;;;;;;;-3.99;55.93;100273.06;5022009;28;20032;-64
2023/11/30 11:18:35;;;;;;;6.30;3.05;;;;;;;-4.02;56.03;100272.19;5028046;28;20052;-65